Time;durP1;ratioP1;P1;durP2;ratioP2;P2;SDS_P1;SDS_P2;PMS_P1;PMS_P2;Temp;Humidity;BMP_temperature;BMP_pressure;BME280_temperature;BME280_humidity;BME280_pressure;Samples;Min_cycle;Max_cycle;Signal;HPM_P1;HPM_P2
2022/01/13 00:01:31;;;;;;;;;;;21.10;32.40;;;;;;498698;239;1183;-44
2022/01/13 00:03:31;;;;;;;;;;;21.00;32.50;;;;;;498318;239;2185;-44
2022/01/13 00:05:32;;;;;;;;;;;21.00;32.50;;;;;;498834;239;1057;-44
2022/01/13 00:07:36;;;;;;;;;;;21.00;32.50;;;;;;498374;239;1224;-44
2022/01/13 00:09:35;;;;;;;;;;;21.00;32.50;;;;;;498340;239;2341;-44
2022/01/13 00:11:37;;;;;;;;;;;21.00;32.50;;;;;;498755;239;1306;-44
2022/01/13 00:13:47;;;;;;;;;;;21.00;32.60;;;;;;498658;239;1183;-44
2022/01/13 00:15:50;;;;;;;;;;;21.00;32.70;;;;;;498332;236;2130;-44
2022/01/13 00:18:00;;;;;;;;;;;20.90;32.70;;;;;;498033;239;2125;-44
2022/01/13 00:20:19;;;;;;;;;;;20.90;32.70;;;;;;498648;239;2005;-44
2022/01/13 00:22:18;;;;;;;;;;;20.90;32.80;;;;;;497696;239;1974;-44
2022/01/13 00:24:15;;;;;;;;;;;20.90;32.80;;;;;;498050;239;2188;-44
2022/01/13 00:26:20;;;;;;;;;;;20.80;32.70;;;;;;498705;239;1143;-44
2022/01/13 00:28:21;;;;;;;;;;;20.80;32.80;;;;;;498272;239;2228;-44
2022/01/13 00:30:21;;;;;;;;;;;20.80;32.90;;;;;;498630;239;2217;-44
2022/01/13 00:32:24;;;;;;;;;;;20.80;32.80;;;;;;498327;239;1181;-44
2022/01/13 00:34:23;;;;;;;;;;;20.80;32.80;;;;;;498251;239;2431;-44
2022/01/13 00:36:24;;;;;;;;;;;20.80;32.80;;;;;;498544;239;1186;-44
2022/01/13 00:38:26;;;;;;;;;;;20.80;32.80;;;;;;498252;239;2106;-44
2022/01/13 00:40:27;;;;;;;;;;;20.80;32.90;;;;;;498803;239;1215;-44
2022/01/13 00:42:28;;;;;;;;;;;20.80;32.90;;;;;;498309;239;1143;-44
2022/01/13 00:44:35;;;;;;;;;;;20.80;32.90;;;;;;498356;239;1131;-44
2022/01/13 00:46:41;;;;;;;;;;;20.70;32.90;;;;;;498426;239;2140;-44
2022/01/13 00:48:32;;;;;;;;;;;20.70;32.90;;;;;;497726;239;1985;-44
2022/01/13 00:50:34;;;;;;;;;;;20.70;32.90;;;;;;498455;239;1450;-44
2022/01/13 00:52:35;;;;;;;;;;;20.70;32.90;;;;;;498313;239;1327;-44
2022/01/13 00:54:36;;;;;;;;;;;20.70;33.00;;;;;;498883;239;1190;-44
2022/01/13 00:56:38;;;;;;;;;;;20.70;32.90;;;;;;498686;239;1171;-44
2022/01/13 00:58:39;;;;;;;;;;;20.70;32.90;;;;;;498349;239;2181;-44
2022/01/13 01:00:40;;;;;;;;;;;20.70;33.00;;;;;;498349;239;1219;-44
2022/01/13 01:02:42;;;;;;;;;;;20.60;33.00;;;;;;498530;239;1220;-44
2022/01/13 01:04:43;;;;;;;;;;;20.70;33.00;;;;;;498690;239;1187;-44
2022/01/13 01:06:44;;;;;;;;;;;20.60;32.90;;;;;;498340;239;1425;-44
2022/01/13 01:08:45;;;;;;;;;;;20.60;33.00;;;;;;498331;239;1153;-44
2022/01/13 01:10:48;;;;;;;;;;;20.60;33.10;;;;;;498817;239;1202;-44
2022/01/13 01:12:48;;;;;;;;;;;20.60;33.00;;;;;;498325;239;2110;-44
2022/01/13 01:14:55;;;;;;;;;;;20.60;33.00;;;;;;498498;239;1213;-44
2022/01/13 01:16:51;;;;;;;;;;;20.60;33.00;;;;;;497997;239;1498;-44
2022/01/13 01:18:59;;;;;;;;;;;20.60;33.10;;;;;;498847;239;2184;-44
2022/01/13 01:21:16;;;;;;;;;;;20.60;33.00;;;;;;498100;239;1787;-44
2022/01/13 01:23:15;;;;;;;;;;;20.50;33.10;;;;;;497548;239;2114;-44
2022/01/13 01:25:33;;;;;;;;;;;20.50;33.00;;;;;;497915;239;2219;-44
2022/01/13 01:27:24;;;;;;;;;;;20.60;33.00;;;;;;497507;239;2231;-44
2022/01/13 01:29:26;;;;;;;;;;;20.50;33.00;;;;;;498191;239;2355;-44
2022/01/13 01:31:28;;;;;;;;;;;20.50;33.00;;;;;;498590;239;2204;-44
2022/01/13 01:33:25;;;;;;;;;;;20.50;33.10;;;;;;498077;239;2038;-44
2022/01/13 01:35:27;;;;;;;;;;;20.50;33.00;;;;;;498388;239;1222;-44
2022/01/13 01:37:28;;;;;;;;;;;20.50;33.10;;;;;;498199;239;2269;-44
2022/01/13 01:39:28;;;;;;;;;;;20.50;33.10;;;;;;498431;239;2381;-44
2022/01/13 01:41:30;;;;;;;;;;;20.50;33.10;;;;;;498374;239;993;-44
2022/01/13 01:43:31;;;;;;;;;;;20.50;33.10;;;;;;498803;239;1069;-44
2022/01/13 01:45:41;;;;;;;;;;;20.50;33.10;;;;;;498532;239;1149;-44
2022/01/13 01:47:34;;;;;;;;;;;20.50;33.20;;;;;;497831;239;2341;-44
2022/01/13 01:49:39;;;;;;;;;;;20.50;33.20;;;;;;498873;239;1107;-44
2022/01/13 01:51:38;;;;;;;;;;;20.40;33.20;;;;;;498231;239;2655;-44
2022/01/13 01:53:39;;;;;;;;;;;20.50;33.20;;;;;;498859;239;1068;-44
2022/01/13 01:55:40;;;;;;;;;;;20.50;33.20;;;;;;498876;239;1076;-44
2022/01/13 01:57:42;;;;;;;;;;;20.50;33.10;;;;;;498844;239;2105;-44
2022/01/13 01:59:43;;;;;;;;;;;20.50;33.20;;;;;;498816;238;1256;-44
2022/01/13 02:01:44;;;;;;;;;;;20.40;33.20;;;;;;498820;239;2242;-44
2022/01/13 02:03:45;;;;;;;;;;;20.50;33.20;;;;;;498370;239;1211;-44
2022/01/13 02:05:47;;;;;;;;;;;20.50;33.20;;;;;;498861;239;1631;-44
2022/01/13 02:07:48;;;;;;;;;;;20.40;33.10;;;;;;498599;239;1200;-44
2022/01/13 02:09:52;;;;;;;;;;;20.40;33.20;;;;;;498447;239;1215;-44
2022/01/13 02:11:54;;;;;;;;;;;20.40;33.20;;;;;;498163;239;2222;-44
2022/01/13 02:13:54;;;;;;;;;;;20.40;33.20;;;;;;498178;239;2612;-44
2022/01/13 02:16:02;;;;;;;;;;;20.40;33.20;;;;;;498189;239;1572;-44
2022/01/13 02:18:01;;;;;;;;;;;20.40;33.20;;;;;;498559;239;2177;-44
2022/01/13 02:20:03;;;;;;;;;;;20.40;33.20;;;;;;498687;239;1062;-44
2022/01/13 02:22:05;;;;;;;;;;;20.40;33.20;;;;;;498468;239;1199;-44
2022/01/13 02:24:06;;;;;;;;;;;20.40;33.10;;;;;;498345;239;1084;-44
2022/01/13 02:26:07;;;;;;;;;;;20.40;33.20;;;;;;498729;239;1172;-44
2022/01/13 02:28:09;;;;;;;;;;;20.40;33.20;;;;;;498333;239;1183;-44
2022/01/13 02:30:10;;;;;;;;;;;20.40;33.20;;;;;;498690;239;1182;-44
2022/01/13 02:32:11;;;;;;;;;;;20.40;33.20;;;;;;498527;238;1201;-44
2022/01/13 02:34:12;;;;;;;;;;;20.30;33.20;;;;;;498431;239;1070;-44
2022/01/13 02:36:14;;;;;;;;;;;20.40;33.20;;;;;;498476;239;1318;-44
2022/01/13 02:38:15;;;;;;;;;;;20.40;33.30;;;;;;498348;239;2166;-44
2022/01/13 02:40:17;;;;;;;;;;;20.30;33.20;;;;;;498891;239;1103;-44
2022/01/13 02:42:18;;;;;;;;;;;20.30;33.20;;;;;;498619;239;1229;-44
2022/01/13 02:44:22;;;;;;;;;;;20.30;33.20;;;;;;498464;239;1236;-44
2022/01/13 02:46:28;;;;;;;;;;;20.40;33.30;;;;;;498108;239;2632;-44
2022/01/13 02:48:30;;;;;;;;;;;20.30;33.20;;;;;;498267;239;2339;-44
2022/01/13 02:50:29;;;;;;;;;;;20.30;33.20;;;;;;498249;239;2044;-44
2022/01/13 02:52:31;;;;;;;;;;;20.30;33.30;;;;;;498280;239;1212;-44
2022/01/13 02:54:32;;;;;;;;;;;20.30;33.30;;;;;;498849;239;1227;-44
2022/01/13 02:56:34;;;;;;;;;;;20.30;33.30;;;;;;498527;239;1625;-44
2022/01/13 02:58:35;;;;;;;;;;;20.30;33.20;;;;;;498415;239;2181;-44
2022/01/13 03:00:36;;;;;;;;;;;20.30;33.20;;;;;;498682;239;1296;-44
2022/01/13 03:02:38;;;;;;;;;;;20.30;33.20;;;;;;498305;239;1525;-44
2022/01/13 03:04:39;;;;;;;;;;;20.30;33.30;;;;;;498858;239;1011;-44
2022/01/13 03:06:41;;;;;;;;;;;20.30;33.40;;;;;;498352;239;1151;-44
2022/01/13 03:08:41;;;;;;;;;;;20.30;33.40;;;;;;498289;239;2439;-44
2022/01/13 03:10:43;;;;;;;;;;;20.30;33.30;;;;;;498844;239;1398;-44
2022/01/13 03:12:45;;;;;;;;;;;20.30;33.30;;;;;;498390;239;1344;-44
2022/01/13 03:14:45;;;;;;;;;;;20.30;33.20;;;;;;498876;239;2375;-44
2022/01/13 03:16:47;;;;;;;;;;;20.40;33.10;;;;;;498291;239;1222;-44
2022/01/13 03:18:48;;;;;;;;;;;20.60;32.90;;;;;;498351;239;2173;-44
2022/01/13 03:20:49;;;;;;;;;;;20.80;32.60;;;;;;498598;236;1194;-44
2022/01/13 03:22:51;;;;;;;;;;;20.90;32.20;;;;;;498369;239;1116;-44
2022/01/13 03:24:52;;;;;;;;;;;21.10;32.10;;;;;;498941;239;1063;-44
2022/01/13 03:26:55;;;;;;;;;;;21.10;31.90;;;;;;498840;239;1330;-44
2022/01/13 03:29:04;;;;;;;;;;;21.20;31.80;;;;;;498383;239;2412;-44
2022/01/13 03:30:56;;;;;;;;;;;21.30;31.70;;;;;;497800;239;2548;-44
2022/01/13 03:32:57;;;;;;;;;;;21.30;31.60;;;;;;498892;239;1179;-44
2022/01/13 03:34:59;;;;;;;;;;;21.40;31.50;;;;;;498940;239;1029;-44
2022/01/13 03:37:00;;;;;;;;;;;21.40;31.40;;;;;;498609;239;1191;-44
2022/01/13 03:39:02;;;;;;;;;;;21.40;31.30;;;;;;498800;239;2125;-44
2022/01/13 03:41:03;;;;;;;;;;;21.50;31.30;;;;;;498879;239;1396;-44
2022/01/13 03:43:04;;;;;;;;;;;21.50;31.20;;;;;;498429;239;1150;-44
2022/01/13 03:45:06;;;;;;;;;;;21.60;31.20;;;;;;498900;239;1045;-44
2022/01/13 03:47:09;;;;;;;;;;;21.60;31.10;;;;;;498441;239;1176;-44
2022/01/13 03:49:09;;;;;;;;;;;21.70;31.10;;;;;;498587;239;2299;-44
2022/01/13 03:51:09;;;;;;;;;;;21.70;31.00;;;;;;498847;239;1157;-43
2022/01/13 03:53:11;;;;;;;;;;;21.70;31.00;;;;;;498876;239;1422;-44
2022/01/13 03:55:12;;;;;;;;;;;21.70;30.90;;;;;;498913;239;1186;-44
2022/01/13 03:57:13;;;;;;;;;;;21.80;31.00;;;;;;498868;239;1573;-44
2022/01/13 03:59:15;;;;;;;;;;;21.80;30.90;;;;;;498527;239;2134;-44
2022/01/13 04:01:16;;;;;;;;;;;21.90;30.90;;;;;;498347;239;1328;-44
2022/01/13 04:03:17;;;;;;;;;;;21.90;30.90;;;;;;498533;239;1009;-44
2022/01/13 04:05:19;;;;;;;;;;;21.90;30.80;;;;;;498827;239;1133;-44
2022/01/13 04:07:20;;;;;;;;;;;21.90;30.80;;;;;;498558;239;1233;-44
2022/01/13 04:09:21;;;;;;;;;;;21.90;30.80;;;;;;498354;239;1043;-44
2022/01/13 04:11:24;;;;;;;;;;;21.90;30.70;;;;;;498362;239;1291;-44
2022/01/13 04:13:44;;;;;;;;;;;22.00;30.80;;;;;;498804;239;2368;-44
2022/01/13 04:15:29;;;;;;;;;;;22.00;30.80;;;;;;497657;239;2355;-44
2022/01/13 04:17:27;;;;;;;;;;;22.00;30.70;;;;;;498316;239;2345;-44
2022/01/13 04:19:29;;;;;;;;;;;22.00;30.70;;;;;;498922;239;2172;-44
2022/01/13 04:21:30;;;;;;;;;;;22.00;30.60;;;;;;498726;239;1347;-44
2022/01/13 04:23:31;;;;;;;;;;;22.10;30.60;;;;;;498830;239;1030;-44
2022/01/13 04:25:34;;;;;;;;;;;22.10;30.70;;;;;;498710;239;1317;-44
2022/01/13 04:27:38;;;;;;;;;;;22.10;30.60;;;;;;498675;239;2365;-44
2022/01/13 04:29:37;;;;;;;;;;;22.10;30.60;;;;;;498697;239;2076;-44
2022/01/13 04:31:37;;;;;;;;;;;22.10;30.50;;;;;;498353;239;2230;-44
2022/01/13 04:33:38;;;;;;;;;;;22.10;30.60;;;;;;498727;239;1078;-44
2022/01/13 04:35:39;;;;;;;;;;;22.10;30.50;;;;;;498836;239;1031;-44
2022/01/13 04:37:41;;;;;;;;;;;22.10;30.50;;;;;;498339;239;1166;-44
2022/01/13 04:39:42;;;;;;;;;;;22.20;30.50;;;;;;498551;239;2170;-44
2022/01/13 04:41:45;;;;;;;;;;;22.20;30.50;;;;;;498834;239;1143;-44
2022/01/13 04:43:45;;;;;;;;;;;22.20;30.50;;;;;;498805;239;2353;-44
2022/01/13 04:45:47;;;;;;;;;;;22.20;30.50;;;;;;498820;238;1069;-44
2022/01/13 04:47:48;;;;;;;;;;;22.20;30.50;;;;;;498307;239;2083;-44
2022/01/13 04:49:48;;;;;;;;;;;22.20;30.50;;;;;;498747;239;2280;-44
2022/01/13 04:51:50;;;;;;;;;;;22.20;30.50;;;;;;498733;239;1324;-44
2022/01/13 04:53:51;;;;;;;;;;;22.30;30.50;;;;;;498335;239;1065;-44
2022/01/13 04:55:57;;;;;;;;;;;22.20;30.50;;;;;;498393;239;1071;-44
2022/01/13 04:57:54;;;;;;;;;;;22.20;30.50;;;;;;497955;239;2446;-44
2022/01/13 04:59:55;;;;;;;;;;;22.20;30.40;;;;;;498838;239;2180;-44
2022/01/13 05:01:56;;;;;;;;;;;22.30;30.50;;;;;;498445;239;1228;-44
2022/01/13 05:03:58;;;;;;;;;;;22.20;30.40;;;;;;498817;239;1094;-44
2022/01/13 05:05:59;;;;;;;;;;;22.30;30.40;;;;;;498528;239;1410;-44
2022/01/13 05:08:00;;;;;;;;;;;22.30;30.40;;;;;;498851;239;1129;-44
2022/01/13 05:10:02;;;;;;;;;;;22.30;30.40;;;;;;498939;239;1023;-44
2022/01/13 05:12:03;;;;;;;;;;;22.30;30.40;;;;;;498689;239;1135;-44
2022/01/13 05:14:04;;;;;;;;;;;22.30;30.40;;;;;;498725;239;1075;-44
2022/01/13 05:16:07;;;;;;;;;;;22.30;30.40;;;;;;498681;239;1202;-44
2022/01/13 05:18:14;;;;;;;;;;;22.30;30.40;;;;;;498136;239;2005;-44
2022/01/13 05:20:15;;;;;;;;;;;22.40;30.40;;;;;;498533;239;2109;-44
2022/01/13 05:22:16;;;;;;;;;;;22.40;30.40;;;;;;498057;239;2374;-44
2022/01/13 05:24:17;;;;;;;;;;;22.40;30.40;;;;;;498831;239;1091;-44
2022/01/13 05:26:18;;;;;;;;;;;22.40;30.40;;;;;;498554;239;1140;-44
2022/01/13 05:28:19;;;;;;;;;;;22.40;30.40;;;;;;498241;239;1213;-44
2022/01/13 05:30:21;;;;;;;;;;;22.40;30.30;;;;;;498334;239;1189;-44
2022/01/13 05:32:22;;;;;;;;;;;22.40;30.30;;;;;;498215;239;1195;-44
2022/01/13 05:34:23;;;;;;;;;;;22.40;30.30;;;;;;498320;239;1026;-44
2022/01/13 05:36:25;;;;;;;;;;;22.50;30.30;;;;;;498260;237;1430;-44
2022/01/13 05:38:26;;;;;;;;;;;22.50;30.30;;;;;;498756;239;1296;-44
2022/01/13 05:40:27;;;;;;;;;;;22.50;30.30;;;;;;498412;239;2125;-44
2022/01/13 05:42:29;;;;;;;;;;;22.50;30.30;;;;;;498375;239;1546;-44
2022/01/13 05:44:37;;;;;;;;;;;22.50;30.30;;;;;;498338;239;1078;-44
2022/01/13 05:46:32;;;;;;;;;;;22.50;30.30;;;;;;497990;239;2017;-44
2022/01/13 05:48:34;;;;;;;;;;;22.50;30.30;;;;;;498469;239;1353;-44
2022/01/13 05:50:35;;;;;;;;;;;22.50;30.30;;;;;;498396;239;1135;-44
2022/01/13 05:52:36;;;;;;;;;;;22.50;30.30;;;;;;498246;239;1264;-44
2022/01/13 05:54:37;;;;;;;;;;;22.50;30.30;;;;;;498801;239;1131;-44
2022/01/13 05:56:39;;;;;;;;;;;22.50;30.20;;;;;;498151;239;1343;-44
2022/01/13 05:58:40;;;;;;;;;;;22.50;30.20;;;;;;498204;239;1061;-44
2022/01/13 06:00:41;;;;;;;;;;;22.50;30.20;;;;;;498370;239;2192;-44
2022/01/13 06:02:43;;;;;;;;;;;22.60;30.30;;;;;;498304;239;1274;-44
2022/01/13 06:04:44;;;;;;;;;;;22.60;30.30;;;;;;498740;239;1059;-44
2022/01/13 06:06:45;;;;;;;;;;;22.60;30.30;;;;;;498101;239;1210;-44
2022/01/13 06:08:47;;;;;;;;;;;22.50;30.20;;;;;;498162;239;1184;-44
2022/01/13 06:10:48;;;;;;;;;;;22.60;30.20;;;;;;498076;239;1359;-44
2022/01/13 06:12:49;;;;;;;;;;;22.60;30.30;;;;;;498588;239;1231;-44
2022/01/13 06:14:51;;;;;;;;;;;22.60;30.30;;;;;;498495;239;1280;-44
2022/01/13 06:16:52;;;;;;;;;;;22.60;30.30;;;;;;498139;239;1118;-44
2022/01/13 06:18:53;;;;;;;;;;;22.60;30.30;;;;;;498150;239;1214;-44
2022/01/13 06:20:55;;;;;;;;;;;22.60;30.20;;;;;;498255;239;2117;-44
2022/01/13 06:22:57;;;;;;;;;;;22.60;30.30;;;;;;497946;239;1155;-44
2022/01/13 06:24:57;;;;;;;;;;;22.60;30.30;;;;;;497931;239;2052;-44
2022/01/13 06:26:59;;;;;;;;;;;22.60;30.20;;;;;;498047;239;1324;-44
2022/01/13 06:29:00;;;;;;;;;;;22.60;30.20;;;;;;498136;239;1407;-44
2022/01/13 06:31:01;;;;;;;;;;;22.60;30.20;;;;;;498140;239;1193;-44
2022/01/13 06:33:04;;;;;;;;;;;22.60;30.20;;;;;;498146;239;1171;-44
2022/01/13 06:35:04;;;;;;;;;;;22.60;30.20;;;;;;498098;239;1880;-44
2022/01/13 06:37:05;;;;;;;;;;;22.70;30.20;;;;;;498139;239;1143;-44
2022/01/13 06:39:07;;;;;;;;;;;22.70;30.20;;;;;;498081;239;1067;-44
2022/01/13 06:41:08;;;;;;;;;;;22.70;30.20;;;;;;498061;239;1390;-44
2022/01/13 06:43:09;;;;;;;;;;;22.60;30.20;;;;;;498146;239;1128;-44
2022/01/13 06:45:11;;;;;;;;;;;22.70;30.20;;;;;;498137;239;1102;-44
2022/01/13 06:47:12;;;;;;;;;;;22.60;30.20;;;;;;498001;239;1338;-44
2022/01/13 06:49:13;;;;;;;;;;;22.70;30.20;;;;;;498198;239;1164;-44
2022/01/13 06:51:15;;;;;;;;;;;22.70;30.30;;;;;;497962;239;1269;-44
2022/01/13 06:53:16;;;;;;;;;;;22.70;30.20;;;;;;497947;239;1159;-44
2022/01/13 06:55:17;;;;;;;;;;;22.70;30.30;;;;;;497908;239;1099;-44
2022/01/13 06:57:19;;;;;;;;;;;22.60;30.30;;;;;;497990;239;1576;-44
2022/01/13 06:59:20;;;;;;;;;;;22.50;30.40;;;;;;498094;239;2197;-44
2022/01/13 07:01:22;;;;;;;;;;;22.30;30.70;;;;;;498133;239;1212;-44
2022/01/13 07:03:23;;;;;;;;;;;22.10;31.00;;;;;;497815;239;2157;-44
2022/01/13 07:05:24;;;;;;;;;;;22.00;31.40;;;;;;498147;239;1325;-44
2022/01/13 07:07:26;;;;;;;;;;;21.80;31.60;;;;;;497890;239;1422;-44
2022/01/13 07:09:27;;;;;;;;;;;21.70;31.80;;;;;;497994;239;1236;-44
2022/01/13 07:11:28;;;;;;;;;;;21.60;31.90;;;;;;498009;239;1335;-44
2022/01/13 07:13:29;;;;;;;;;;;21.40;32.10;;;;;;498006;239;1224;-44
2022/01/13 07:15:32;;;;;;;;;;;21.50;32.10;;;;;;497964;239;1333;-44
2022/01/13 07:17:33;;;;;;;;;;;21.40;32.10;;;;;;498009;239;1208;-43
2022/01/13 07:19:34;;;;;;;;;;;21.30;32.20;;;;;;497946;239;2193;-44
2022/01/13 07:21:36;;;;;;;;;;;21.30;32.20;;;;;;497940;239;1278;-44
2022/01/13 07:23:37;;;;;;;;;;;21.30;32.30;;;;;;497950;238;1103;-44
2022/01/13 07:25:38;;;;;;;;;;;21.30;32.30;;;;;;498295;239;1186;-44
2022/01/13 07:27:40;;;;;;;;;;;21.20;32.30;;;;;;497894;239;1180;-44
2022/01/13 07:29:42;;;;;;;;;;;21.20;32.40;;;;;;498050;239;1073;-44
2022/01/13 07:31:43;;;;;;;;;;;21.20;32.40;;;;;;497730;239;2217;-44
2022/01/13 07:33:44;;;;;;;;;;;21.20;32.40;;;;;;498038;239;1178;-44
2022/01/13 07:35:45;;;;;;;;;;;21.10;32.40;;;;;;497770;239;1116;-44
2022/01/13 07:37:47;;;;;;;;;;;21.10;32.40;;;;;;497838;239;1226;-44
2022/01/13 07:39:48;;;;;;;;;;;21.10;32.40;;;;;;497883;239;2413;-44
2022/01/13 07:41:49;;;;;;;;;;;21.10;32.40;;;;;;497779;239;1297;-44
2022/01/13 07:43:54;;;;;;;;;;;21.10;32.40;;;;;;497702;239;1038;-44
2022/01/13 07:45:52;;;;;;;;;;;21.00;32.40;;;;;;497592;239;2062;-44
2022/01/13 07:47:53;;;;;;;;;;;21.00;32.40;;;;;;497784;239;1222;-44
2022/01/13 07:49:55;;;;;;;;;;;21.00;32.50;;;;;;497611;239;1226;-44
2022/01/13 07:51:56;;;;;;;;;;;21.00;32.50;;;;;;497760;239;1281;-44
2022/01/13 07:53:57;;;;;;;;;;;21.00;32.40;;;;;;497668;239;1077;-44
2022/01/13 07:55:58;;;;;;;;;;;21.00;32.40;;;;;;497637;236;1379;-44
2022/01/13 07:58:00;;;;;;;;;;;20.90;32.40;;;;;;497869;239;1044;-44
2022/01/13 08:00:01;;;;;;;;;;;20.90;32.40;;;;;;498260;239;2184;-44
2022/01/13 08:02:02;;;;;;;;;;;20.90;32.40;;;;;;497325;239;1294;-44
2022/01/13 08:04:04;;;;;;;;;;;20.90;32.50;;;;;;498093;239;1100;-44
2022/01/13 08:06:05;;;;;;;;;;;20.90;32.40;;;;;;497697;239;1189;-44
2022/01/13 08:08:06;;;;;;;;;;;20.90;32.40;;;;;;498100;239;1024;-44
2022/01/13 08:10:08;;;;;;;;;;;20.80;32.40;;;;;;498243;239;890;-44
2022/01/13 08:12:09;;;;;;;;;;;20.80;32.50;;;;;;497657;239;1076;-44
2022/01/13 08:14:10;;;;;;;;;;;20.80;32.40;;;;;;497678;239;1034;-44
2022/01/13 08:16:12;;;;;;;;;;;20.80;32.40;;;;;;497550;239;1150;-44
2022/01/13 08:20:32;;;;;;;;;;;20.80;32.50;;;;;;497462;239;2130;-44
2022/01/13 08:22:34;;;;;;;;;;;20.80;32.50;;;;;;497439;239;1285;-44
2022/01/13 08:24:35;;;;;;;;;;;20.80;32.40;;;;;;497655;239;1235;-44
2022/01/13 08:26:36;;;;;;;;;;;20.70;32.40;;;;;;497424;239;1275;-44
2022/01/13 08:28:38;;;;;;;;;;;20.70;32.40;;;;;;497517;239;1059;-44
2022/01/13 08:30:39;;;;;;;;;;;20.70;32.40;;;;;;497654;239;1176;-44
2022/01/13 08:32:40;;;;;;;;;;;20.70;32.30;;;;;;497751;239;1236;-44
2022/01/13 08:34:42;;;;;;;;;;;20.70;32.30;;;;;;497649;239;1179;-44
2022/01/13 08:36:43;;;;;;;;;;;20.70;32.30;;;;;;497703;239;1348;-44
2022/01/13 08:38:45;;;;;;;;;;;20.70;32.30;;;;;;497816;239;1213;-44
2022/01/13 08:40:45;;;;;;;;;;;20.70;32.30;;;;;;497527;239;2297;-44
2022/01/13 08:42:47;;;;;;;;;;;20.70;32.30;;;;;;498356;239;1136;-43
2022/01/13 08:44:48;;;;;;;;;;;20.60;32.30;;;;;;498031;239;1040;-44
2022/01/13 08:46:49;;;;;;;;;;;20.70;32.30;;;;;;497665;239;1271;-44
2022/01/13 08:48:51;;;;;;;;;;;20.60;32.30;;;;;;497646;239;1268;-44
2022/01/13 08:50:52;;;;;;;;;;;20.60;32.20;;;;;;497474;239;1274;-44
2022/01/13 08:52:53;;;;;;;;;;;20.60;32.20;;;;;;497447;239;1277;-44
2022/01/13 08:54:56;;;;;;;;;;;20.60;32.20;;;;;;497516;239;1159;-44
2022/01/13 08:56:57;;;;;;;;;;;20.60;32.30;;;;;;497606;239;1443;-44
2022/01/13 08:58:58;;;;;;;;;;;20.60;32.30;;;;;;498387;239;809;-44
2022/01/13 09:01:00;;;;;;;;;;;20.60;32.30;;;;;;498052;239;2192;-44
2022/01/13 09:03:01;;;;;;;;;;;20.60;32.30;;;;;;497919;239;1185;-44
2022/01/13 09:05:02;;;;;;;;;;;20.60;32.20;;;;;;497592;239;1174;-44
2022/01/13 09:07:04;;;;;;;;;;;20.60;32.20;;;;;;497757;239;1230;-44
2022/01/13 09:09:05;;;;;;;;;;;20.50;32.20;;;;;;497627;239;1243;-44
2022/01/13 09:11:06;;;;;;;;;;;20.50;32.20;;;;;;497528;239;1342;-44
2022/01/13 09:13:08;;;;;;;;;;;20.60;32.20;;;;;;497511;239;1207;-44
2022/01/13 09:15:17;;;;;;;;;;;20.60;32.20;;;;;;497634;239;1036;-44
2022/01/13 09:17:22;;;;;;;;;;;20.50;32.20;;;;;;498179;239;1942;-44
2022/01/13 09:19:21;;;;;;;;;;;20.60;32.20;;;;;;497620;239;2139;-44
2022/01/13 09:21:22;;;;;;;;;;;20.50;32.20;;;;;;497729;239;2177;-44
2022/01/13 09:23:23;;;;;;;;;;;20.60;32.20;;;;;;497688;239;1095;-44
2022/01/13 09:25:24;;;;;;;;;;;20.50;32.10;;;;;;497674;239;1017;-44
2022/01/13 09:27:26;;;;;;;;;;;20.60;32.20;;;;;;497637;239;1216;-44
2022/01/13 09:29:28;;;;;;;;;;;20.50;32.10;;;;;;497406;239;1049;-44
2022/01/13 09:31:29;;;;;;;;;;;20.50;32.10;;;;;;497339;239;1370;-44
2022/01/13 09:33:30;;;;;;;;;;;20.50;32.10;;;;;;497397;239;1190;-44
2022/01/13 09:35:31;;;;;;;;;;;20.50;32.20;;;;;;497537;239;1453;-44
2022/01/13 09:37:33;;;;;;;;;;;20.40;32.20;;;;;;497830;239;1269;-44
2022/01/13 09:39:34;;;;;;;;;;;20.40;32.10;;;;;;497638;239;1236;-44
2022/01/13 09:41:35;;;;;;;;;;;20.50;32.10;;;;;;497377;239;2400;-44
2022/01/13 09:43:37;;;;;;;;;;;20.40;32.10;;;;;;497297;239;1311;-44
2022/01/13 09:45:38;;;;;;;;;;;20.50;32.10;;;;;;497278;239;1122;-44
2022/01/13 09:47:39;;;;;;;;;;;20.40;32.10;;;;;;497289;239;1228;-44
2022/01/13 09:49:41;;;;;;;;;;;20.40;32.10;;;;;;497325;239;1091;-44
2022/01/13 09:51:45;;;;;;;;;;;20.40;32.10;;;;;;497519;239;1193;-44
2022/01/13 09:53:43;;;;;;;;;;;20.40;32.10;;;;;;497883;239;1792;-44
2022/01/13 09:55:45;;;;;;;;;;;20.40;32.10;;;;;;497382;239;1279;-44
2022/01/13 09:57:46;;;;;;;;;;;20.40;32.10;;;;;;497720;239;1292;-44
2022/01/13 09:59:49;;;;;;;;;;;20.40;32.00;;;;;;497661;239;1085;-44
2022/01/13 10:01:50;;;;;;;;;;;20.40;32.10;;;;;;497655;239;2193;-44
2022/01/13 10:03:52;;;;;;;;;;;20.40;32.00;;;;;;497277;239;1049;-44
2022/01/13 10:05:53;;;;;;;;;;;20.40;32.00;;;;;;497311;235;1319;-44
2022/01/13 10:07:55;;;;;;;;;;;20.40;32.00;;;;;;497751;239;1124;-44
2022/01/13 10:09:56;;;;;;;;;;;20.40;32.00;;;;;;497669;239;1369;-44
2022/01/13 10:11:58;;;;;;;;;;;20.40;32.00;;;;;;497564;239;1278;-44
2022/01/13 10:13:58;;;;;;;;;;;20.40;32.00;;;;;;497486;239;2032;-44
2022/01/13 10:18:19;;;;;;;;;;;20.40;32.00;;;;;;497203;239;1142;-43
2022/01/13 10:20:20;;;;;;;;;;;20.40;32.00;;;;;;497324;239;1104;-44
2022/01/13 10:22:23;;;;;;;;;;;20.30;31.80;;;;;;497452;239;2188;-44
2022/01/13 10:24:23;;;;;;;;;;;20.40;31.90;;;;;;497440;239;2171;-43
2022/01/13 10:26:24;;;;;;;;;;;20.40;31.80;;;;;;497456;239;1688;-44
2022/01/13 10:28:25;;;;;;;;;;;20.40;31.80;;;;;;497264;239;1244;-44
2022/01/13 10:30:27;;;;;;;;;;;20.40;31.80;;;;;;497444;239;1288;-43
2022/01/13 10:32:28;;;;;;;;;;;20.40;31.70;;;;;;497401;239;1253;-44
2022/01/13 10:34:32;;;;;;;;;;;20.40;31.80;;;;;;497565;239;1092;-44
2022/01/13 10:36:30;;;;;;;;;;;20.40;31.80;;;;;;497365;239;2060;-44
2022/01/13 10:38:32;;;;;;;;;;;20.40;31.80;;;;;;497346;239;1978;-44
2022/01/13 10:40:39;;;;;;;;;;;20.40;31.80;;;;;;497506;239;2193;-44
2022/01/13 10:43:06;;;;;;;;;;;20.30;31.80;;;;;;497323;239;1760;-44
2022/01/13 10:44:45;;;;;;;;;;;20.30;31.80;;;;;;496029;239;1708;-43
2022/01/13 10:46:47;;;;;;;;;;;20.40;31.70;;;;;;497328;239;1259;-44
2022/01/13 10:48:48;;;;;;;;;;;20.40;31.80;;;;;;497124;239;1222;-43
2022/01/13 10:50:50;;;;;;;;;;;20.30;31.70;;;;;;497242;239;1349;-44
2022/01/13 10:52:52;;;;;;;;;;;20.30;31.80;;;;;;497415;239;1300;-44
2022/01/13 10:54:53;;;;;;;;;;;20.30;31.70;;;;;;497548;239;1358;-44
2022/01/13 10:56:54;;;;;;;;;;;20.30;31.70;;;;;;497558;239;1305;-44
2022/01/13 10:58:57;;;;;;;;;;;20.30;31.70;;;;;;498383;239;877;-44
2022/01/13 11:00:57;;;;;;;;;;;20.30;31.80;;;;;;497546;236;2181;-44
2022/01/13 11:02:58;;;;;;;;;;;20.20;31.70;;;;;;497397;239;1267;-44
2022/01/13 11:04:59;;;;;;;;;;;20.20;31.70;;;;;;497433;239;1324;-44
2022/01/13 11:07:01;;;;;;;;;;;20.30;31.80;;;;;;497498;239;1183;-44
2022/01/13 11:09:03;;;;;;;;;;;20.30;31.70;;;;;;497492;239;1055;-44
2022/01/13 11:11:04;;;;;;;;;;;20.30;31.70;;;;;;497407;239;2606;-44
2022/01/13 11:13:07;;;;;;;;;;;20.30;31.60;;;;;;497353;239;1182;-44
2022/01/13 11:15:07;;;;;;;;;;;20.30;31.70;;;;;;497221;239;2000;-44
2022/01/13 11:17:08;;;;;;;;;;;20.30;31.70;;;;;;497486;239;1270;-44
2022/01/13 11:19:09;;;;;;;;;;;20.20;31.70;;;;;;497590;239;1022;-44
2022/01/13 11:21:10;;;;;;;;;;;20.20;31.60;;;;;;497482;239;2184;-44
2022/01/13 11:23:12;;;;;;;;;;;20.30;31.70;;;;;;497635;239;1246;-44
2022/01/13 11:25:13;;;;;;;;;;;20.30;31.50;;;;;;497767;238;1256;-44
2022/01/13 11:27:14;;;;;;;;;;;20.50;31.00;;;;;;497699;239;1344;-44
2022/01/13 11:29:16;;;;;;;;;;;20.70;30.70;;;;;;497621;239;1119;-44
2022/01/13 11:31:19;;;;;;;;;;;20.90;30.30;;;;;;497450;239;1362;-44
2022/01/13 11:33:19;;;;;;;;;;;21.00;30.10;;;;;;497499;239;2207;-43
2022/01/13 11:35:20;;;;;;;;;;;21.10;30.00;;;;;;497476;239;1124;-44
2022/01/13 11:37:22;;;;;;;;;;;21.20;29.90;;;;;;497665;239;1204;-44
2022/01/13 11:39:23;;;;;;;;;;;21.30;29.80;;;;;;497644;239;1087;-44
2022/01/13 11:41:24;;;;;;;;;;;21.30;29.70;;;;;;497686;239;2173;-44
2022/01/13 11:43:26;;;;;;;;;;;21.40;29.70;;;;;;497718;239;1172;-44
2022/01/13 11:45:27;;;;;;;;;;;21.40;29.60;;;;;;497573;239;1085;-44
2022/01/13 11:47:28;;;;;;;;;;;21.50;29.60;;;;;;497625;239;1310;-44
2022/01/13 11:49:41;;;;;;;;;;;21.50;29.50;;;;;;497874;239;1199;-44
2022/01/13 11:51:34;;;;;;;;;;;21.60;29.40;;;;;;496887;236;2343;-44
2022/01/13 11:53:40;;;;;;;;;;;21.60;29.40;;;;;;497439;239;1268;-44
2022/01/13 11:55:41;;;;;;;;;;;21.60;29.30;;;;;;497348;239;2278;-44
2022/01/13 11:57:39;;;;;;;;;;;21.70;29.30;;;;;;497464;239;2233;-43
2022/01/13 11:59:40;;;;;;;;;;;21.70;29.30;;;;;;497570;239;1110;-44
2022/01/13 12:01:42;;;;;;;;;;;21.70;29.30;;;;;;497978;238;2180;-44
2022/01/13 12:03:43;;;;;;;;;;;21.70;29.20;;;;;;497335;239;1221;-44